<?xml version="1.0" encoding="UTF-8" standalone="no" ?>
<gpx xmlns="http://www.topografix.com/GPX/1/1" xmlns:xsi="http://www.w3.org/2001/XMLSchema-instance" xsi:schemaLocation="http://www.topografix.com/GPX/1/1 http://www.topografix.com/GPX/1/1/gpx.xsd" version="1.1" creator="VisuGPX - https://www.visugpx.com">
  <metadata>
    <name>Garlaban</name>
    <desc><![CDATA[rando Garlaban 201211118, dont sites Pagnol]]></desc>
  </metadata>
  <trk>
    <name><![CDATA[Sequence 1]]></name>
    <trkseg>
      <trkpt lat="43.30959" lon="5.54689">
        <ele>201.69999694824</ele>
        <time>2012-11-18T09:57:49</time>
      </trkpt>
      <trkpt lat="43.30984" lon="5.54727">
        <ele>204.39999389648</ele>
        <time>2012-11-18T09:58:12</time>
      </trkpt>
      <trkpt lat="43.31002" lon="5.54718">
        <ele>196.89999389648</ele>
        <time>2012-11-18T09:58:31</time>
      </trkpt>
      <trkpt lat="43.3104" lon="5.54742">
        <ele>197.39999389648</ele>
        <time>2012-11-18T09:58:57</time>
      </trkpt>
      <trkpt lat="43.31058" lon="5.54753">
        <ele>189.69999694824</ele>
        <time>2012-11-18T09:59:07</time>
      </trkpt>
      <trkpt lat="43.31074" lon="5.54764">
        <ele>190</ele>
        <time>2012-11-18T09:59:20</time>
      </trkpt>
      <trkpt lat="43.31113" lon="5.54751">
        <ele>185</ele>
        <time>2012-11-18T09:59:51</time>
      </trkpt>
      <trkpt lat="43.31129" lon="5.54743">
        <ele>183.60000610352</ele>
        <time>2012-11-18T10:00:03</time>
      </trkpt>
      <trkpt lat="43.31143" lon="5.54731">
        <ele>190</ele>
        <time>2012-11-18T10:00:20</time>
      </trkpt>
      <trkpt lat="43.31171" lon="5.54721">
        <ele>201.19999694824</ele>
        <time>2012-11-18T10:00:38</time>
      </trkpt>
      <trkpt lat="43.31193" lon="5.54704">
        <ele>199.89999389648</ele>
        <time>2012-11-18T10:01:00</time>
      </trkpt>
      <trkpt lat="43.3123" lon="5.54688">
        <ele>202</ele>
        <time>2012-11-18T10:01:25</time>
      </trkpt>
      <trkpt lat="43.31233" lon="5.54688">
        <ele>201.5</ele>
        <time>2012-11-18T10:01:27</time>
      </trkpt>
      <trkpt lat="43.31278" lon="5.54667">
        <ele>187.10000610352</ele>
        <time>2012-11-18T10:01:54</time>
      </trkpt>
      <trkpt lat="43.31272" lon="5.54641">
        <ele>195.19999694824</ele>
        <time>2012-11-18T10:02:07</time>
      </trkpt>
      <trkpt lat="43.31278" lon="5.54593">
        <ele>200.89999389648</ele>
        <time>2012-11-18T10:02:37</time>
      </trkpt>
      <trkpt lat="43.3129" lon="5.54586">
        <ele>202.69999694824</ele>
        <time>2012-11-18T10:02:53</time>
      </trkpt>
      <trkpt lat="43.31325" lon="5.54591">
        <ele>201.5</ele>
        <time>2012-11-18T10:03:28</time>
      </trkpt>
      <trkpt lat="43.31347" lon="5.54598">
        <ele>199.10000610352</ele>
        <time>2012-11-18T10:03:47</time>
      </trkpt>
      <trkpt lat="43.31378" lon="5.54607">
        <ele>207.89999389648</ele>
        <time>2012-11-18T10:04:22</time>
      </trkpt>
      <trkpt lat="43.31388" lon="5.54607">
        <ele>208</ele>
        <time>2012-11-18T10:04:32</time>
      </trkpt>
      <trkpt lat="43.31418" lon="5.5462">
        <ele>216.89999389648</ele>
        <time>2012-11-18T10:05:14</time>
      </trkpt>
      <trkpt lat="43.31427" lon="5.54612">
        <ele>211.10000610352</ele>
        <time>2012-11-18T10:05:41</time>
      </trkpt>
      <trkpt lat="43.31422" lon="5.54578">
        <ele>223.60000610352</ele>
        <time>2012-11-18T10:06:08</time>
      </trkpt>
      <trkpt lat="43.31423" lon="5.54541">
        <ele>225.79998779297</ele>
        <time>2012-11-18T10:06:42</time>
      </trkpt>
      <trkpt lat="43.31522" lon="5.54313">
        <ele>246.60000610352</ele>
        <time>2012-11-18T10:31:05</time>
      </trkpt>
      <trkpt lat="43.31536" lon="5.54294">
        <ele>248.79998779297</ele>
        <time>2012-11-18T10:31:21</time>
      </trkpt>
      <trkpt lat="43.31572" lon="5.54271">
        <ele>253.5</ele>
        <time>2012-11-18T10:32:06</time>
      </trkpt>
      <trkpt lat="43.3158" lon="5.54265">
        <ele>253.39999389648</ele>
        <time>2012-11-18T10:32:14</time>
      </trkpt>
      <trkpt lat="43.31592" lon="5.54229">
        <ele>250.5</ele>
        <time>2012-11-18T10:32:41</time>
      </trkpt>
      <trkpt lat="43.31596" lon="5.54193">
        <ele>249.89999389648</ele>
        <time>2012-11-18T10:33:07</time>
      </trkpt>
      <trkpt lat="43.31616" lon="5.54168">
        <ele>252.39999389648</ele>
        <time>2012-11-18T10:33:34</time>
      </trkpt>
      <trkpt lat="43.3163" lon="5.54133">
        <ele>252.60000610352</ele>
        <time>2012-11-18T10:34:03</time>
      </trkpt>
      <trkpt lat="43.31636" lon="5.54114">
        <ele>251</ele>
        <time>2012-11-18T10:34:16</time>
      </trkpt>
      <trkpt lat="43.31655" lon="5.54076">
        <ele>243.5</ele>
        <time>2012-11-18T10:34:48</time>
      </trkpt>
      <trkpt lat="43.31657" lon="5.54057">
        <ele>236.29998779297</ele>
        <time>2012-11-18T10:35:02</time>
      </trkpt>
      <trkpt lat="43.31655" lon="5.54019">
        <ele>238.39999389648</ele>
        <time>2012-11-18T10:35:28</time>
      </trkpt>
      <trkpt lat="43.31658" lon="5.53989">
        <ele>238</ele>
        <time>2012-11-18T10:35:45</time>
      </trkpt>
      <trkpt lat="43.31653" lon="5.53942">
        <ele>247.29998779297</ele>
        <time>2012-11-18T10:36:15</time>
      </trkpt>
      <trkpt lat="43.31664" lon="5.53908">
        <ele>241.5</ele>
        <time>2012-11-18T10:36:44</time>
      </trkpt>
      <trkpt lat="43.3167" lon="5.53882">
        <ele>244.60000610352</ele>
        <time>2012-11-18T10:37:01</time>
      </trkpt>
      <trkpt lat="43.31674" lon="5.53861">
        <ele>247.10000610352</ele>
        <time>2012-11-18T10:37:14</time>
      </trkpt>
      <trkpt lat="43.31689" lon="5.5383">
        <ele>247</ele>
        <time>2012-11-18T10:37:39</time>
      </trkpt>
      <trkpt lat="43.31699" lon="5.53794">
        <ele>247.5</ele>
        <time>2012-11-18T10:38:04</time>
      </trkpt>
      <trkpt lat="43.31708" lon="5.53774">
        <ele>245</ele>
        <time>2012-11-18T10:38:22</time>
      </trkpt>
      <trkpt lat="43.31716" lon="5.53733">
        <ele>250.5</ele>
        <time>2012-11-18T10:38:52</time>
      </trkpt>
      <trkpt lat="43.31719" lon="5.53719">
        <ele>248.70001220703</ele>
        <time>2012-11-18T10:39:05</time>
      </trkpt>
      <trkpt lat="43.31753" lon="5.53703">
        <ele>254.10000610352</ele>
        <time>2012-11-18T10:39:44</time>
      </trkpt>
      <trkpt lat="43.31766" lon="5.5371">
        <ele>256.10000610352</ele>
        <time>2012-11-18T10:39:57</time>
      </trkpt>
      <trkpt lat="43.31791" lon="5.53731">
        <ele>255.79998779297</ele>
        <time>2012-11-18T10:40:31</time>
      </trkpt>
      <trkpt lat="43.31823" lon="5.53736">
        <ele>257.70001220703</ele>
        <time>2012-11-18T10:41:04</time>
      </trkpt>
      <trkpt lat="43.31824" lon="5.53713">
        <ele>260</ele>
        <time>2012-11-18T10:41:19</time>
      </trkpt>
      <trkpt lat="43.3182" lon="5.53701">
        <ele>260.70001220703</ele>
        <time>2012-11-18T10:41:27</time>
      </trkpt>
      <trkpt lat="43.31809" lon="5.53659">
        <ele>266</ele>
        <time>2012-11-18T10:42:01</time>
      </trkpt>
      <trkpt lat="43.31788" lon="5.53617">
        <ele>270.70001220703</ele>
        <time>2012-11-18T10:42:28</time>
      </trkpt>
      <trkpt lat="43.31788" lon="5.53582">
        <ele>261.10000610352</ele>
        <time>2012-11-18T10:42:46</time>
      </trkpt>
      <trkpt lat="43.31788" lon="5.53554">
        <ele>252.10000610352</ele>
        <time>2012-11-18T10:42:57</time>
      </trkpt>
      <trkpt lat="43.31783" lon="5.53518">
        <ele>263.60000610352</ele>
        <time>2012-11-18T10:43:18</time>
      </trkpt>
      <trkpt lat="43.31789" lon="5.53485">
        <ele>263.5</ele>
        <time>2012-11-18T10:43:38</time>
      </trkpt>
      <trkpt lat="43.31778" lon="5.53463">
        <ele>259.70001220703</ele>
        <time>2012-11-18T10:43:50</time>
      </trkpt>
      <trkpt lat="43.31782" lon="5.53437">
        <ele>255.5</ele>
        <time>2012-11-18T10:44:04</time>
      </trkpt>
      <trkpt lat="43.31792" lon="5.53418">
        <ele>259.5</ele>
        <time>2012-11-18T10:44:17</time>
      </trkpt>
      <trkpt lat="43.31795" lon="5.5336">
        <ele>264</ele>
        <time>2012-11-18T10:44:45</time>
      </trkpt>
      <trkpt lat="43.3179" lon="5.5333">
        <ele>278.29998779297</ele>
        <time>2012-11-18T10:45:02</time>
      </trkpt>
      <trkpt lat="43.31798" lon="5.53315">
        <ele>265.89999389648</ele>
        <time>2012-11-18T10:45:14</time>
      </trkpt>
      <trkpt lat="43.318" lon="5.53281">
        <ele>270.70001220703</ele>
        <time>2012-11-18T10:45:35</time>
      </trkpt>
      <trkpt lat="43.318" lon="5.53224">
        <ele>271.79998779297</ele>
        <time>2012-11-18T10:46:11</time>
      </trkpt>
      <trkpt lat="43.31804" lon="5.53213">
        <ele>264.10000610352</ele>
        <time>2012-11-18T10:46:21</time>
      </trkpt>
      <trkpt lat="43.31815" lon="5.53196">
        <ele>271.10000610352</ele>
        <time>2012-11-18T10:46:39</time>
      </trkpt>
      <trkpt lat="43.31831" lon="5.53152">
        <ele>285.60000610352</ele>
        <time>2012-11-18T10:47:22</time>
      </trkpt>
      <trkpt lat="43.31847" lon="5.53157">
        <ele>300.79998779297</ele>
        <time>2012-11-18T10:47:43</time>
      </trkpt>
      <trkpt lat="43.31863" lon="5.53157">
        <ele>282.10000610352</ele>
        <time>2012-11-18T10:47:53</time>
      </trkpt>
      <trkpt lat="43.31869" lon="5.53105">
        <ele>298.70001220703</ele>
        <time>2012-11-18T10:48:25</time>
      </trkpt>
      <trkpt lat="43.31876" lon="5.53098">
        <ele>299.60000610352</ele>
        <time>2012-11-18T10:48:39</time>
      </trkpt>
      <trkpt lat="43.31892" lon="5.53066">
        <ele>296</ele>
        <time>2012-11-18T10:49:45</time>
      </trkpt>
      <trkpt lat="43.31918" lon="5.53042">
        <ele>296.29998779297</ele>
        <time>2012-11-18T10:50:14</time>
      </trkpt>
      <trkpt lat="43.31929" lon="5.53052">
        <ele>299.60000610352</ele>
        <time>2012-11-18T10:50:26</time>
      </trkpt>
      <trkpt lat="43.31957" lon="5.53077">
        <ele>297.89999389648</ele>
        <time>2012-11-18T10:50:57</time>
      </trkpt>
      <trkpt lat="43.31967" lon="5.53067">
        <ele>299.60000610352</ele>
        <time>2012-11-18T10:51:13</time>
      </trkpt>
      <trkpt lat="43.31973" lon="5.5304">
        <ele>308.20001220703</ele>
        <time>2012-11-18T10:51:36</time>
      </trkpt>
      <trkpt lat="43.32" lon="5.53052">
        <ele>310.29998779297</ele>
        <time>2012-11-18T10:52:07</time>
      </trkpt>
      <trkpt lat="43.3203" lon="5.53044">
        <ele>322.10000610352</ele>
        <time>2012-11-18T10:52:37</time>
      </trkpt>
      <trkpt lat="43.32058" lon="5.53037">
        <ele>328.79998779297</ele>
        <time>2012-11-18T10:53:02</time>
      </trkpt>
      <trkpt lat="43.32069" lon="5.53022">
        <ele>325.70001220703</ele>
        <time>2012-11-18T10:53:17</time>
      </trkpt>
      <trkpt lat="43.32078" lon="5.52999">
        <ele>325.29998779297</ele>
        <time>2012-11-18T10:53:33</time>
      </trkpt>
      <trkpt lat="43.32091" lon="5.52968">
        <ele>321.60000610352</ele>
        <time>2012-11-18T10:53:59</time>
      </trkpt>
      <trkpt lat="43.321" lon="5.52943">
        <ele>313.89999389648</ele>
        <time>2012-11-18T10:54:14</time>
      </trkpt>
      <trkpt lat="43.32122" lon="5.52921">
        <ele>312.89999389648</ele>
        <time>2012-11-18T10:54:38</time>
      </trkpt>
      <trkpt lat="43.32138" lon="5.52907">
        <ele>316.89999389648</ele>
        <time>2012-11-18T10:54:52</time>
      </trkpt>
      <trkpt lat="43.32164" lon="5.52888">
        <ele>321.60000610352</ele>
        <time>2012-11-18T10:55:11</time>
      </trkpt>
      <trkpt lat="43.32232" lon="5.5288">
        <ele>302.89999389648</ele>
        <time>2012-11-18T10:59:13</time>
      </trkpt>
      <trkpt lat="43.32234" lon="5.5285">
        <ele>311.20001220703</ele>
        <time>2012-11-18T10:59:32</time>
      </trkpt>
      <trkpt lat="43.32246" lon="5.52829">
        <ele>312.39999389648</ele>
        <time>2012-11-18T10:59:49</time>
      </trkpt>
      <trkpt lat="43.3226" lon="5.52806">
        <ele>310.29998779297</ele>
        <time>2012-11-18T11:00:29</time>
      </trkpt>
      <trkpt lat="43.32278" lon="5.52795">
        <ele>316.20001220703</ele>
        <time>2012-11-18T11:00:41</time>
      </trkpt>
      <trkpt lat="43.32303" lon="5.52772">
        <ele>331.20001220703</ele>
        <time>2012-11-18T11:01:08</time>
      </trkpt>
      <trkpt lat="43.32324" lon="5.52762">
        <ele>342.79998779297</ele>
        <time>2012-11-18T11:01:27</time>
      </trkpt>
      <trkpt lat="43.32344" lon="5.52751">
        <ele>337.79998779297</ele>
        <time>2012-11-18T11:01:45</time>
      </trkpt>
      <trkpt lat="43.32364" lon="5.52801">
        <ele>338.60000610352</ele>
        <time>2012-11-18T11:03:46</time>
      </trkpt>
      <trkpt lat="43.32374" lon="5.52839">
        <ele>338.5</ele>
        <time>2012-11-18T11:04:15</time>
      </trkpt>
      <trkpt lat="43.32377" lon="5.52868">
        <ele>341.10000610352</ele>
        <time>2012-11-18T11:04:35</time>
      </trkpt>
      <trkpt lat="43.32379" lon="5.52893">
        <ele>336.10000610352</ele>
        <time>2012-11-18T11:04:54</time>
      </trkpt>
      <trkpt lat="43.32388" lon="5.52922">
        <ele>342.39999389648</ele>
        <time>2012-11-18T11:05:19</time>
      </trkpt>
      <trkpt lat="43.32401" lon="5.52947">
        <ele>342.60000610352</ele>
        <time>2012-11-18T11:05:43</time>
      </trkpt>
      <trkpt lat="43.32419" lon="5.52997">
        <ele>345.89999389648</ele>
        <time>2012-11-18T11:06:29</time>
      </trkpt>
      <trkpt lat="43.32422" lon="5.53015">
        <ele>347.79998779297</ele>
        <time>2012-11-18T11:06:43</time>
      </trkpt>
      <trkpt lat="43.32427" lon="5.53058">
        <ele>362</ele>
        <time>2012-11-18T11:07:20</time>
      </trkpt>
      <trkpt lat="43.32435" lon="5.53084">
        <ele>362.60000610352</ele>
        <time>2012-11-18T11:07:41</time>
      </trkpt>
      <trkpt lat="43.32454" lon="5.53114">
        <ele>376.20001220703</ele>
        <time>2012-11-18T11:08:17</time>
      </trkpt>
      <trkpt lat="43.32466" lon="5.53123">
        <ele>384.70001220703</ele>
        <time>2012-11-18T11:08:32</time>
      </trkpt>
      <trkpt lat="43.32483" lon="5.53143">
        <ele>389</ele>
        <time>2012-11-18T11:09:02</time>
      </trkpt>
      <trkpt lat="43.32505" lon="5.53154">
        <ele>397.39999389648</ele>
        <time>2012-11-18T11:09:29</time>
      </trkpt>
      <trkpt lat="43.32569" lon="5.53229">
        <ele>410.29998779297</ele>
        <time>2012-11-18T11:14:28</time>
      </trkpt>
      <trkpt lat="43.32591" lon="5.53254">
        <ele>423.60000610352</ele>
        <time>2012-11-18T11:14:58</time>
      </trkpt>
      <trkpt lat="43.32619" lon="5.5326">
        <ele>419.10000610352</ele>
        <time>2012-11-18T11:16:04</time>
      </trkpt>
      <trkpt lat="43.32643" lon="5.53289">
        <ele>424.5</ele>
        <time>2012-11-18T11:17:30</time>
      </trkpt>
      <trkpt lat="43.32656" lon="5.53284">
        <ele>431.60000610352</ele>
        <time>2012-11-18T11:17:39</time>
      </trkpt>
      <trkpt lat="43.32656" lon="5.53302">
        <ele>435</ele>
        <time>2012-11-18T11:18:19</time>
      </trkpt>
      <trkpt lat="43.32679" lon="5.53326">
        <ele>447.39999389648</ele>
        <time>2012-11-18T11:19:11</time>
      </trkpt>
      <trkpt lat="43.32689" lon="5.5335">
        <ele>454.70001220703</ele>
        <time>2012-11-18T11:20:13</time>
      </trkpt>
      <trkpt lat="43.32712" lon="5.53383">
        <ele>456.10000610352</ele>
        <time>2012-11-18T11:21:05</time>
      </trkpt>
      <trkpt lat="43.32727" lon="5.53398">
        <ele>463.29998779297</ele>
        <time>2012-11-18T11:21:37</time>
      </trkpt>
      <trkpt lat="43.3274" lon="5.53409">
        <ele>461.29998779297</ele>
        <time>2012-11-18T11:22:04</time>
      </trkpt>
      <trkpt lat="43.32773" lon="5.53438">
        <ele>468.5</ele>
        <time>2012-11-18T11:23:02</time>
      </trkpt>
      <trkpt lat="43.32847" lon="5.53505">
        <ele>480.09997558594</ele>
        <time>2012-11-18T11:28:09</time>
      </trkpt>
      <trkpt lat="43.32864" lon="5.53524">
        <ele>489</ele>
        <time>2012-11-18T11:28:44</time>
      </trkpt>
      <trkpt lat="43.32896" lon="5.53548">
        <ele>496.5</ele>
        <time>2012-11-18T11:29:31</time>
      </trkpt>
      <trkpt lat="43.32915" lon="5.53569">
        <ele>495.5</ele>
        <time>2012-11-18T11:30:08</time>
      </trkpt>
      <trkpt lat="43.3292" lon="5.5357">
        <ele>495.90002441406</ele>
        <time>2012-11-18T11:30:18</time>
      </trkpt>
      <trkpt lat="43.32947" lon="5.53591">
        <ele>503.5</ele>
        <time>2012-11-18T11:31:02</time>
      </trkpt>
      <trkpt lat="43.3296" lon="5.53598">
        <ele>504.70001220703</ele>
        <time>2012-11-18T11:31:24</time>
      </trkpt>
      <trkpt lat="43.32989" lon="5.53617">
        <ele>507.29998779297</ele>
        <time>2012-11-18T11:32:01</time>
      </trkpt>
      <trkpt lat="43.33005" lon="5.53627">
        <ele>512.59997558594</ele>
        <time>2012-11-18T11:32:27</time>
      </trkpt>
      <trkpt lat="43.33029" lon="5.53655">
        <ele>516.70001220703</ele>
        <time>2012-11-18T11:33:10</time>
      </trkpt>
      <trkpt lat="43.33018" lon="5.53684">
        <ele>515.79998779297</ele>
        <time>2012-11-18T11:33:48</time>
      </trkpt>
      <trkpt lat="43.33004" lon="5.53714">
        <ele>518</ele>
        <time>2012-11-18T11:34:17</time>
      </trkpt>
      <trkpt lat="43.33004" lon="5.53737">
        <ele>521.40002441406</ele>
        <time>2012-11-18T11:34:46</time>
      </trkpt>
      <trkpt lat="43.33003" lon="5.5377">
        <ele>519.5</ele>
        <time>2012-11-18T11:35:12</time>
      </trkpt>
      <trkpt lat="43.33004" lon="5.53806">
        <ele>525.09997558594</ele>
        <time>2012-11-18T11:35:42</time>
      </trkpt>
      <trkpt lat="43.33005" lon="5.53862">
        <ele>530.20001220703</ele>
        <time>2012-11-18T11:36:31</time>
      </trkpt>
      <trkpt lat="43.33005" lon="5.53885">
        <ele>530.5</ele>
        <time>2012-11-18T11:36:49</time>
      </trkpt>
      <trkpt lat="43.32996" lon="5.53923">
        <ele>532.40002441406</ele>
        <time>2012-11-18T11:37:24</time>
      </trkpt>
      <trkpt lat="43.32992" lon="5.53945">
        <ele>536.29998779297</ele>
        <time>2012-11-18T11:37:45</time>
      </trkpt>
      <trkpt lat="43.32995" lon="5.53971">
        <ele>540.20001220703</ele>
        <time>2012-11-18T11:38:12</time>
      </trkpt>
      <trkpt lat="43.33009" lon="5.54018">
        <ele>543.79998779297</ele>
        <time>2012-11-18T11:38:51</time>
      </trkpt>
      <trkpt lat="43.33017" lon="5.54029">
        <ele>550.20001220703</ele>
        <time>2012-11-18T11:39:12</time>
      </trkpt>
      <trkpt lat="43.33016" lon="5.54046">
        <ele>555.79998779297</ele>
        <time>2012-11-18T11:39:29</time>
      </trkpt>
      <trkpt lat="43.33015" lon="5.54084">
        <ele>555.09997558594</ele>
        <time>2012-11-18T11:40:02</time>
      </trkpt>
      <trkpt lat="43.33032" lon="5.54129">
        <ele>556.5</ele>
        <time>2012-11-18T11:40:47</time>
      </trkpt>
      <trkpt lat="43.33048" lon="5.54146">
        <ele>560.79998779297</ele>
        <time>2012-11-18T11:41:19</time>
      </trkpt>
      <trkpt lat="43.33066" lon="5.54162">
        <ele>563.59997558594</ele>
        <time>2012-11-18T11:41:50</time>
      </trkpt>
      <trkpt lat="43.33086" lon="5.54179">
        <ele>562.29998779297</ele>
        <time>2012-11-18T11:42:21</time>
      </trkpt>
      <trkpt lat="43.33104" lon="5.54191">
        <ele>567.70001220703</ele>
        <time>2012-11-18T11:42:58</time>
      </trkpt>
      <trkpt lat="43.33133" lon="5.54206">
        <ele>576.20001220703</ele>
        <time>2012-11-18T11:43:44</time>
      </trkpt>
      <trkpt lat="43.33148" lon="5.54215">
        <ele>581.09997558594</ele>
        <time>2012-11-18T11:44:04</time>
      </trkpt>
      <trkpt lat="43.33166" lon="5.54232">
        <ele>581.09997558594</ele>
        <time>2012-11-18T11:44:35</time>
      </trkpt>
      <trkpt lat="43.33179" lon="5.54234">
        <ele>583.5</ele>
        <time>2012-11-18T11:44:52</time>
      </trkpt>
      <trkpt lat="43.33207" lon="5.54235">
        <ele>585.79998779297</ele>
        <time>2012-11-18T11:45:26</time>
      </trkpt>
      <trkpt lat="43.33228" lon="5.54254">
        <ele>589.70001220703</ele>
        <time>2012-11-18T11:45:59</time>
      </trkpt>
      <trkpt lat="43.33245" lon="5.54271">
        <ele>596</ele>
        <time>2012-11-18T11:46:22</time>
      </trkpt>
      <trkpt lat="43.33262" lon="5.54304">
        <ele>602.20001220703</ele>
        <time>2012-11-18T11:46:51</time>
      </trkpt>
      <trkpt lat="43.33272" lon="5.54321">
        <ele>602.09997558594</ele>
        <time>2012-11-18T11:47:10</time>
      </trkpt>
      <trkpt lat="43.33297" lon="5.54352">
        <ele>601.79998779297</ele>
        <time>2012-11-18T11:47:49</time>
      </trkpt>
      <trkpt lat="43.33307" lon="5.54383">
        <ele>599.90002441406</ele>
        <time>2012-11-18T11:48:12</time>
      </trkpt>
      <trkpt lat="43.33312" lon="5.54404">
        <ele>602.40002441406</ele>
        <time>2012-11-18T11:48:27</time>
      </trkpt>
      <trkpt lat="43.33319" lon="5.54435">
        <ele>608.20001220703</ele>
        <time>2012-11-18T11:48:51</time>
      </trkpt>
      <trkpt lat="43.33331" lon="5.54469">
        <ele>599.40002441406</ele>
        <time>2012-11-18T11:49:22</time>
      </trkpt>
      <trkpt lat="43.33343" lon="5.54491">
        <ele>604.09997558594</ele>
        <time>2012-11-18T11:49:41</time>
      </trkpt>
      <trkpt lat="43.33358" lon="5.54522">
        <ele>608.20001220703</ele>
        <time>2012-11-18T11:50:05</time>
      </trkpt>
      <trkpt lat="43.33367" lon="5.54539">
        <ele>610.79998779297</ele>
        <time>2012-11-18T11:50:24</time>
      </trkpt>
      <trkpt lat="43.33367" lon="5.54578">
        <ele>616.09997558594</ele>
        <time>2012-11-18T11:50:50</time>
      </trkpt>
      <trkpt lat="43.33365" lon="5.54616">
        <ele>611.09997558594</ele>
        <time>2012-11-18T11:51:19</time>
      </trkpt>
      <trkpt lat="43.33384" lon="5.54648">
        <ele>619.40002441406</ele>
        <time>2012-11-18T11:51:47</time>
      </trkpt>
      <trkpt lat="43.33399" lon="5.54672">
        <ele>618.79998779297</ele>
        <time>2012-11-18T11:52:06</time>
      </trkpt>
      <trkpt lat="43.33424" lon="5.54697">
        <ele>620.09997558594</ele>
        <time>2012-11-18T11:52:35</time>
      </trkpt>
      <trkpt lat="43.33429" lon="5.54719">
        <ele>620.5</ele>
        <time>2012-11-18T11:52:50</time>
      </trkpt>
      <trkpt lat="43.33428" lon="5.54758">
        <ele>615.5</ele>
        <time>2012-11-18T11:53:17</time>
      </trkpt>
      <trkpt lat="43.33429" lon="5.54788">
        <ele>617.5</ele>
        <time>2012-11-18T11:53:41</time>
      </trkpt>
      <trkpt lat="43.3343" lon="5.54821">
        <ele>617.40002441406</ele>
        <time>2012-11-18T11:54:03</time>
      </trkpt>
      <trkpt lat="43.33431" lon="5.54861">
        <ele>615.29998779297</ele>
        <time>2012-11-18T11:54:25</time>
      </trkpt>
      <trkpt lat="43.3343" lon="5.54889">
        <ele>614</ele>
        <time>2012-11-18T11:54:41</time>
      </trkpt>
      <trkpt lat="43.33436" lon="5.54921">
        <ele>617.5</ele>
        <time>2012-11-18T11:55:03</time>
      </trkpt>
      <trkpt lat="43.33442" lon="5.54947">
        <ele>618.5</ele>
        <time>2012-11-18T11:55:23</time>
      </trkpt>
      <trkpt lat="43.33453" lon="5.54992">
        <ele>616.5</ele>
        <time>2012-11-18T11:55:54</time>
      </trkpt>
      <trkpt lat="43.33455" lon="5.55016">
        <ele>618.09997558594</ele>
        <time>2012-11-18T11:56:10</time>
      </trkpt>
      <trkpt lat="43.33463" lon="5.55041">
        <ele>623.20001220703</ele>
        <time>2012-11-18T11:56:54</time>
      </trkpt>
      <trkpt lat="43.33482" lon="5.55073">
        <ele>627.40002441406</ele>
        <time>2012-11-18T11:57:20</time>
      </trkpt>
      <trkpt lat="43.335" lon="5.55091">
        <ele>627.29998779297</ele>
        <time>2012-11-18T11:57:42</time>
      </trkpt>
      <trkpt lat="43.33425" lon="5.55289">
        <ele>678.59997558594</ele>
        <time>2012-11-18T12:52:06</time>
      </trkpt>
      <trkpt lat="43.33407" lon="5.553">
        <ele>687.70001220703</ele>
        <time>2012-11-18T12:52:35</time>
      </trkpt>
      <trkpt lat="43.334" lon="5.55331">
        <ele>694.20001220703</ele>
        <time>2012-11-18T12:53:09</time>
      </trkpt>
      <trkpt lat="43.33385" lon="5.55354">
        <ele>700.79998779297</ele>
        <time>2012-11-18T12:53:41</time>
      </trkpt>
      <trkpt lat="43.33362" lon="5.55358">
        <ele>705.90002441406</ele>
        <time>2012-11-18T12:54:06</time>
      </trkpt>
      <trkpt lat="43.33337" lon="5.55356">
        <ele>707.79998779297</ele>
        <time>2012-11-18T12:54:30</time>
      </trkpt>
      <trkpt lat="43.33311" lon="5.55355">
        <ele>712.20001220703</ele>
        <time>2012-11-18T12:55:00</time>
      </trkpt>
      <trkpt lat="43.33299" lon="5.55353">
        <ele>713.40002441406</ele>
        <time>2012-11-18T12:55:16</time>
      </trkpt>
      <trkpt lat="43.33371" lon="5.5526">
        <ele>679.70001220703</ele>
        <time>2012-11-18T13:10:09</time>
      </trkpt>
      <trkpt lat="43.33385" lon="5.55251">
        <ele>670.90002441406</ele>
        <time>2012-11-18T13:10:42</time>
      </trkpt>
      <trkpt lat="43.33434" lon="5.55252">
        <ele>658.20001220703</ele>
        <time>2012-11-18T13:11:37</time>
      </trkpt>
      <trkpt lat="43.33456" lon="5.55231">
        <ele>642</ele>
        <time>2012-11-18T13:12:45</time>
      </trkpt>
      <trkpt lat="43.33474" lon="5.55239">
        <ele>640</ele>
        <time>2012-11-18T13:13:17</time>
      </trkpt>
      <trkpt lat="43.33484" lon="5.55224">
        <ele>631.29998779297</ele>
        <time>2012-11-18T13:13:42</time>
      </trkpt>
      <trkpt lat="43.33487" lon="5.55221">
        <ele>632.59997558594</ele>
        <time>2012-11-18T13:13:45</time>
      </trkpt>
      <trkpt lat="43.33504" lon="5.5518">
        <ele>606.79998779297</ele>
        <time>2012-11-18T13:14:12</time>
      </trkpt>
      <trkpt lat="43.33513" lon="5.55149">
        <ele>618.90002441406</ele>
        <time>2012-11-18T13:14:30</time>
      </trkpt>
      <trkpt lat="43.33515" lon="5.55125">
        <ele>616.5</ele>
        <time>2012-11-18T13:14:42</time>
      </trkpt>
      <trkpt lat="43.335" lon="5.55112">
        <ele>613.20001220703</ele>
        <time>2012-11-18T13:15:41</time>
      </trkpt>
      <trkpt lat="43.3352" lon="5.5496">
        <ele>610.20001220703</ele>
        <time>2012-11-18T13:22:25</time>
      </trkpt>
      <trkpt lat="43.33527" lon="5.54921">
        <ele>615.90002441406</ele>
        <time>2012-11-18T13:22:53</time>
      </trkpt>
      <trkpt lat="43.33532" lon="5.54891">
        <ele>636.59997558594</ele>
        <time>2012-11-18T13:23:14</time>
      </trkpt>
      <trkpt lat="43.33525" lon="5.5486">
        <ele>632</ele>
        <time>2012-11-18T13:23:35</time>
      </trkpt>
      <trkpt lat="43.33537" lon="5.54831">
        <ele>638.90002441406</ele>
        <time>2012-11-18T13:24:05</time>
      </trkpt>
      <trkpt lat="43.33548" lon="5.54799">
        <ele>625.90002441406</ele>
        <time>2012-11-18T13:24:27</time>
      </trkpt>
      <trkpt lat="43.33566" lon="5.54763">
        <ele>629.70001220703</ele>
        <time>2012-11-18T13:24:54</time>
      </trkpt>
      <trkpt lat="43.33574" lon="5.54751">
        <ele>631.40002441406</ele>
        <time>2012-11-18T13:25:02</time>
      </trkpt>
      <trkpt lat="43.33584" lon="5.54714">
        <ele>629.79998779297</ele>
        <time>2012-11-18T13:26:01</time>
      </trkpt>
      <trkpt lat="43.33586" lon="5.54689">
        <ele>628</ele>
        <time>2012-11-18T13:26:16</time>
      </trkpt>
      <trkpt lat="43.33596" lon="5.54649">
        <ele>624.79998779297</ele>
        <time>2012-11-18T13:26:56</time>
      </trkpt>
      <trkpt lat="43.33614" lon="5.54631">
        <ele>620.20001220703</ele>
        <time>2012-11-18T13:27:23</time>
      </trkpt>
      <trkpt lat="43.33626" lon="5.54617">
        <ele>615.70001220703</ele>
        <time>2012-11-18T13:27:44</time>
      </trkpt>
      <trkpt lat="43.33642" lon="5.54597">
        <ele>612.29998779297</ele>
        <time>2012-11-18T13:28:31</time>
      </trkpt>
      <trkpt lat="43.33667" lon="5.54568">
        <ele>585</ele>
        <time>2012-11-18T13:29:50</time>
      </trkpt>
      <trkpt lat="43.33675" lon="5.54572">
        <ele>586.59997558594</ele>
        <time>2012-11-18T13:30:00</time>
      </trkpt>
      <trkpt lat="43.33683" lon="5.54547">
        <ele>580.20001220703</ele>
        <time>2012-11-18T13:30:48</time>
      </trkpt>
      <trkpt lat="43.33686" lon="5.54499">
        <ele>568.29998779297</ele>
        <time>2012-11-18T13:32:27</time>
      </trkpt>
      <trkpt lat="43.33678" lon="5.54479">
        <ele>567.90002441406</ele>
        <time>2012-11-18T13:32:39</time>
      </trkpt>
      <trkpt lat="43.33666" lon="5.54449">
        <ele>572.70001220703</ele>
        <time>2012-11-18T13:33:08</time>
      </trkpt>
      <trkpt lat="43.33654" lon="5.54419">
        <ele>566.90002441406</ele>
        <time>2012-11-18T13:33:56</time>
      </trkpt>
      <trkpt lat="43.33674" lon="5.54394">
        <ele>535.90002441406</ele>
        <time>2012-11-18T13:35:29</time>
      </trkpt>
      <trkpt lat="43.33686" lon="5.5439">
        <ele>536.90002441406</ele>
        <time>2012-11-18T13:35:35</time>
      </trkpt>
      <trkpt lat="43.33643" lon="5.54306">
        <ele>516.29998779297</ele>
        <time>2012-11-18T13:39:58</time>
      </trkpt>
      <trkpt lat="43.33628" lon="5.54253">
        <ele>517.20001220703</ele>
        <time>2012-11-18T13:40:35</time>
      </trkpt>
      <trkpt lat="43.3362" lon="5.54229">
        <ele>511.20001220703</ele>
        <time>2012-11-18T13:40:57</time>
      </trkpt>
      <trkpt lat="43.33605" lon="5.54205">
        <ele>511.90002441406</ele>
        <time>2012-11-18T13:41:15</time>
      </trkpt>
      <trkpt lat="43.33593" lon="5.54188">
        <ele>508.29998779297</ele>
        <time>2012-11-18T13:41:32</time>
      </trkpt>
      <trkpt lat="43.33575" lon="5.54138">
        <ele>503.59997558594</ele>
        <time>2012-11-18T13:42:07</time>
      </trkpt>
      <trkpt lat="43.33564" lon="5.54114">
        <ele>501.70001220703</ele>
        <time>2012-11-18T13:42:30</time>
      </trkpt>
      <trkpt lat="43.33558" lon="5.54101">
        <ele>496.70001220703</ele>
        <time>2012-11-18T13:42:40</time>
      </trkpt>
      <trkpt lat="43.3355" lon="5.54066">
        <ele>498.70001220703</ele>
        <time>2012-11-18T13:43:09</time>
      </trkpt>
      <trkpt lat="43.33523" lon="5.54033">
        <ele>498</ele>
        <time>2012-11-18T13:43:37</time>
      </trkpt>
      <trkpt lat="43.33508" lon="5.54027">
        <ele>492.70001220703</ele>
        <time>2012-11-18T13:43:51</time>
      </trkpt>
      <trkpt lat="43.33492" lon="5.53978">
        <ele>488.70001220703</ele>
        <time>2012-11-18T13:44:26</time>
      </trkpt>
      <trkpt lat="43.33477" lon="5.53966">
        <ele>489.40002441406</ele>
        <time>2012-11-18T13:44:40</time>
      </trkpt>
      <trkpt lat="43.33465" lon="5.5395">
        <ele>488.79998779297</ele>
        <time>2012-11-18T13:44:55</time>
      </trkpt>
      <trkpt lat="43.3344" lon="5.53929">
        <ele>486.70001220703</ele>
        <time>2012-11-18T13:45:23</time>
      </trkpt>
      <trkpt lat="43.33424" lon="5.53902">
        <ele>480.59997558594</ele>
        <time>2012-11-18T13:45:48</time>
      </trkpt>
      <trkpt lat="43.33422" lon="5.53879">
        <ele>480.20001220703</ele>
        <time>2012-11-18T13:46:00</time>
      </trkpt>
      <trkpt lat="43.33394" lon="5.53841">
        <ele>464.79998779297</ele>
        <time>2012-11-18T13:46:49</time>
      </trkpt>
      <trkpt lat="43.33395" lon="5.53836">
        <ele>472.29998779297</ele>
        <time>2012-11-18T13:46:59</time>
      </trkpt>
      <trkpt lat="43.33384" lon="5.53791">
        <ele>466.70001220703</ele>
        <time>2012-11-18T13:47:39</time>
      </trkpt>
      <trkpt lat="43.33375" lon="5.53768">
        <ele>466.09997558594</ele>
        <time>2012-11-18T13:51:21</time>
      </trkpt>
      <trkpt lat="43.33356" lon="5.53731">
        <ele>463.5</ele>
        <time>2012-11-18T13:51:49</time>
      </trkpt>
      <trkpt lat="43.3334" lon="5.53696">
        <ele>468.5</ele>
        <time>2012-11-18T13:52:11</time>
      </trkpt>
      <trkpt lat="43.33328" lon="5.53656">
        <ele>480.40002441406</ele>
        <time>2012-11-18T13:52:32</time>
      </trkpt>
      <trkpt lat="43.33322" lon="5.53624">
        <ele>474</ele>
        <time>2012-11-18T13:52:51</time>
      </trkpt>
      <trkpt lat="43.33315" lon="5.53612">
        <ele>470.70001220703</ele>
        <time>2012-11-18T13:53:02</time>
      </trkpt>
      <trkpt lat="43.333" lon="5.53595">
        <ele>469.90002441406</ele>
        <time>2012-11-18T13:53:17</time>
      </trkpt>
      <trkpt lat="43.33271" lon="5.53558">
        <ele>468.59997558594</ele>
        <time>2012-11-18T13:53:46</time>
      </trkpt>
      <trkpt lat="43.33249" lon="5.53523">
        <ele>467.09997558594</ele>
        <time>2012-11-18T13:54:16</time>
      </trkpt>
      <trkpt lat="43.33238" lon="5.5351">
        <ele>467.20001220703</ele>
        <time>2012-11-18T13:54:31</time>
      </trkpt>
      <trkpt lat="43.33207" lon="5.53497">
        <ele>460</ele>
        <time>2012-11-18T13:55:07</time>
      </trkpt>
      <trkpt lat="43.33193" lon="5.535">
        <ele>458.20001220703</ele>
        <time>2012-11-18T13:55:20</time>
      </trkpt>
      <trkpt lat="43.33161" lon="5.53491">
        <ele>449.5</ele>
        <time>2012-11-18T13:55:49</time>
      </trkpt>
      <trkpt lat="43.33143" lon="5.53484">
        <ele>446.79998779297</ele>
        <time>2012-11-18T13:56:04</time>
      </trkpt>
      <trkpt lat="43.33117" lon="5.53482">
        <ele>439.89999389648</ele>
        <time>2012-11-18T13:56:45</time>
      </trkpt>
      <trkpt lat="43.33092" lon="5.53488">
        <ele>439</ele>
        <time>2012-11-18T13:57:35</time>
      </trkpt>
      <trkpt lat="43.33081" lon="5.53505">
        <ele>438</ele>
        <time>2012-11-18T13:57:57</time>
      </trkpt>
      <trkpt lat="43.33071" lon="5.53524">
        <ele>439.89999389648</ele>
        <time>2012-11-18T13:58:27</time>
      </trkpt>
      <trkpt lat="43.33079" lon="5.53565">
        <ele>438.20001220703</ele>
        <time>2012-11-18T13:59:10</time>
      </trkpt>
      <trkpt lat="43.33089" lon="5.53584">
        <ele>464.5</ele>
        <time>2012-11-18T13:59:49</time>
      </trkpt>
      <trkpt lat="43.33084" lon="5.53592">
        <ele>471.59997558594</ele>
        <time>2012-11-18T13:59:58</time>
      </trkpt>
      <trkpt lat="43.33085" lon="5.53481">
        <ele>434.70001220703</ele>
        <time>2012-11-18T14:15:41</time>
      </trkpt>
      <trkpt lat="43.33058" lon="5.53458">
        <ele>434.10000610352</ele>
        <time>2012-11-18T14:16:06</time>
      </trkpt>
      <trkpt lat="43.33036" lon="5.53429">
        <ele>432.70001220703</ele>
        <time>2012-11-18T14:16:27</time>
      </trkpt>
      <trkpt lat="43.33022" lon="5.53413">
        <ele>429.79998779297</ele>
        <time>2012-11-18T14:16:41</time>
      </trkpt>
      <trkpt lat="43.33013" lon="5.53387">
        <ele>428.89999389648</ele>
        <time>2012-11-18T14:16:57</time>
      </trkpt>
      <trkpt lat="43.33002" lon="5.53356">
        <ele>425.79998779297</ele>
        <time>2012-11-18T14:17:23</time>
      </trkpt>
      <trkpt lat="43.32987" lon="5.5333">
        <ele>417.60000610352</ele>
        <time>2012-11-18T14:17:47</time>
      </trkpt>
      <trkpt lat="43.3297" lon="5.5329">
        <ele>412.89999389648</ele>
        <time>2012-11-18T14:18:11</time>
      </trkpt>
      <trkpt lat="43.32961" lon="5.53275">
        <ele>412.79998779297</ele>
        <time>2012-11-18T14:18:22</time>
      </trkpt>
      <trkpt lat="43.32947" lon="5.5324">
        <ele>408.60000610352</ele>
        <time>2012-11-18T14:18:46</time>
      </trkpt>
      <trkpt lat="43.32929" lon="5.53205">
        <ele>406.29998779297</ele>
        <time>2012-11-18T14:19:11</time>
      </trkpt>
      <trkpt lat="43.32907" lon="5.53187">
        <ele>401.60000610352</ele>
        <time>2012-11-18T14:19:31</time>
      </trkpt>
      <trkpt lat="43.32896" lon="5.53166">
        <ele>398.60000610352</ele>
        <time>2012-11-18T14:19:45</time>
      </trkpt>
      <trkpt lat="43.32881" lon="5.53142">
        <ele>395.29998779297</ele>
        <time>2012-11-18T14:20:06</time>
      </trkpt>
      <trkpt lat="43.32863" lon="5.53112">
        <ele>390.20001220703</ele>
        <time>2012-11-18T14:20:30</time>
      </trkpt>
      <trkpt lat="43.32856" lon="5.53084">
        <ele>386.70001220703</ele>
        <time>2012-11-18T14:20:52</time>
      </trkpt>
      <trkpt lat="43.3284" lon="5.53046">
        <ele>380.5</ele>
        <time>2012-11-18T14:21:25</time>
      </trkpt>
      <trkpt lat="43.32823" lon="5.53034">
        <ele>376.5</ele>
        <time>2012-11-18T14:21:45</time>
      </trkpt>
      <trkpt lat="43.32809" lon="5.53005">
        <ele>372.70001220703</ele>
        <time>2012-11-18T14:22:11</time>
      </trkpt>
      <trkpt lat="43.32792" lon="5.52973">
        <ele>366.29998779297</ele>
        <time>2012-11-18T14:22:38</time>
      </trkpt>
      <trkpt lat="43.32784" lon="5.52953">
        <ele>361.10000610352</ele>
        <time>2012-11-18T14:22:54</time>
      </trkpt>
      <trkpt lat="43.32769" lon="5.52928">
        <ele>355.20001220703</ele>
        <time>2012-11-18T14:23:17</time>
      </trkpt>
      <trkpt lat="43.32752" lon="5.52894">
        <ele>347.89999389648</ele>
        <time>2012-11-18T14:23:39</time>
      </trkpt>
      <trkpt lat="43.32624" lon="5.52773">
        <ele>335</ele>
        <time>2012-11-18T14:31:22</time>
      </trkpt>
      <trkpt lat="43.32611" lon="5.52759">
        <ele>331.60000610352</ele>
        <time>2012-11-18T14:31:46</time>
      </trkpt>
      <trkpt lat="43.32596" lon="5.52741">
        <ele>326.29998779297</ele>
        <time>2012-11-18T14:32:06</time>
      </trkpt>
      <trkpt lat="43.32567" lon="5.52713">
        <ele>330.20001220703</ele>
        <time>2012-11-18T14:32:48</time>
      </trkpt>
      <trkpt lat="43.32547" lon="5.52688">
        <ele>332.60000610352</ele>
        <time>2012-11-18T14:33:23</time>
      </trkpt>
      <trkpt lat="43.32538" lon="5.52671">
        <ele>320</ele>
        <time>2012-11-18T14:33:38</time>
      </trkpt>
      <trkpt lat="43.32502" lon="5.52673">
        <ele>325.79998779297</ele>
        <time>2012-11-18T14:36:56</time>
      </trkpt>
      <trkpt lat="43.32477" lon="5.52684">
        <ele>327.39999389648</ele>
        <time>2012-11-18T14:37:19</time>
      </trkpt>
      <trkpt lat="43.32446" lon="5.52709">
        <ele>325.60000610352</ele>
        <time>2012-11-18T14:37:51</time>
      </trkpt>
      <trkpt lat="43.32432" lon="5.52714">
        <ele>326.60000610352</ele>
        <time>2012-11-18T14:38:09</time>
      </trkpt>
      <trkpt lat="43.32416" lon="5.52714">
        <ele>322.20001220703</ele>
        <time>2012-11-18T14:38:28</time>
      </trkpt>
      <trkpt lat="43.32388" lon="5.52718">
        <ele>321.70001220703</ele>
        <time>2012-11-18T14:38:53</time>
      </trkpt>
      <trkpt lat="43.32366" lon="5.52723">
        <ele>327.70001220703</ele>
        <time>2012-11-18T14:39:16</time>
      </trkpt>
      <trkpt lat="43.32334" lon="5.5272">
        <ele>331.70001220703</ele>
        <time>2012-11-18T14:40:38</time>
      </trkpt>
      <trkpt lat="43.32306" lon="5.52716">
        <ele>341.79998779297</ele>
        <time>2012-11-18T14:41:27</time>
      </trkpt>
      <trkpt lat="43.32294" lon="5.5272">
        <ele>342.39999389648</ele>
        <time>2012-11-18T14:42:00</time>
      </trkpt>
      <trkpt lat="43.32242" lon="5.52569">
        <ele>378.39999389648</ele>
        <time>2012-11-18T14:54:34</time>
      </trkpt>
      <trkpt lat="43.32231" lon="5.52552">
        <ele>375.60000610352</ele>
        <time>2012-11-18T14:54:50</time>
      </trkpt>
      <trkpt lat="43.32227" lon="5.52533">
        <ele>375.79998779297</ele>
        <time>2012-11-18T14:55:04</time>
      </trkpt>
      <trkpt lat="43.32202" lon="5.5249">
        <ele>370.70001220703</ele>
        <time>2012-11-18T14:55:44</time>
      </trkpt>
      <trkpt lat="43.32192" lon="5.52474">
        <ele>374.89999389648</ele>
        <time>2012-11-18T14:55:55</time>
      </trkpt>
      <trkpt lat="43.3218" lon="5.52442">
        <ele>374.70001220703</ele>
        <time>2012-11-18T14:56:25</time>
      </trkpt>
      <trkpt lat="43.32148" lon="5.52409">
        <ele>373.89999389648</ele>
        <time>2012-11-18T14:56:58</time>
      </trkpt>
      <trkpt lat="43.32136" lon="5.52386">
        <ele>377.60000610352</ele>
        <time>2012-11-18T14:57:33</time>
      </trkpt>
      <trkpt lat="43.32125" lon="5.52372">
        <ele>371.5</ele>
        <time>2012-11-18T14:57:45</time>
      </trkpt>
      <trkpt lat="43.32097" lon="5.52359">
        <ele>373.10000610352</ele>
        <time>2012-11-18T14:58:11</time>
      </trkpt>
      <trkpt lat="43.32086" lon="5.52347">
        <ele>374.89999389648</ele>
        <time>2012-11-18T14:58:24</time>
      </trkpt>
      <trkpt lat="43.3206" lon="5.52296">
        <ele>376.29998779297</ele>
        <time>2012-11-18T14:59:15</time>
      </trkpt>
      <trkpt lat="43.32061" lon="5.52294">
        <ele>377.39999389648</ele>
        <time>2012-11-18T14:59:19</time>
      </trkpt>
      <trkpt lat="43.32079" lon="5.52251">
        <ele>379.79998779297</ele>
        <time>2012-11-18T15:00:14</time>
      </trkpt>
      <trkpt lat="43.32096" lon="5.52223">
        <ele>381.39999389648</ele>
        <time>2012-11-18T15:00:59</time>
      </trkpt>
      <trkpt lat="43.32136" lon="5.52716">
        <ele>303</ele>
        <time>2012-11-18T15:39:54</time>
      </trkpt>
      <trkpt lat="43.32193" lon="5.52777">
        <ele>305.5</ele>
        <time>2012-11-18T15:42:38</time>
      </trkpt>
      <trkpt lat="43.32201" lon="5.52778">
        <ele>304.10000610352</ele>
        <time>2012-11-18T15:42:46</time>
      </trkpt>
      <trkpt lat="43.32235" lon="5.52782">
        <ele>307.70001220703</ele>
        <time>2012-11-18T15:43:17</time>
      </trkpt>
      <trkpt lat="43.32256" lon="5.52806">
        <ele>315.70001220703</ele>
        <time>2012-11-18T15:43:49</time>
      </trkpt>
      <trkpt lat="43.32245" lon="5.52828">
        <ele>312.29998779297</ele>
        <time>2012-11-18T15:44:11</time>
      </trkpt>
      <trkpt lat="43.32233" lon="5.52845">
        <ele>317.29998779297</ele>
        <time>2012-11-18T15:44:24</time>
      </trkpt>
      <trkpt lat="43.32231" lon="5.52876">
        <ele>312</ele>
        <time>2012-11-18T15:44:43</time>
      </trkpt>
      <trkpt lat="43.32196" lon="5.52885">
        <ele>304.89999389648</ele>
        <time>2012-11-18T15:45:16</time>
      </trkpt>
      <trkpt lat="43.32174" lon="5.52888">
        <ele>300.5</ele>
        <time>2012-11-18T15:45:36</time>
      </trkpt>
      <trkpt lat="43.32154" lon="5.529">
        <ele>303.39999389648</ele>
        <time>2012-11-18T15:45:59</time>
      </trkpt>
      <trkpt lat="43.32124" lon="5.52927">
        <ele>314.89999389648</ele>
        <time>2012-11-18T15:46:33</time>
      </trkpt>
      <trkpt lat="43.32102" lon="5.52951">
        <ele>312.79998779297</ele>
        <time>2012-11-18T15:47:01</time>
      </trkpt>
      <trkpt lat="43.32092" lon="5.52959">
        <ele>315</ele>
        <time>2012-11-18T15:47:13</time>
      </trkpt>
      <trkpt lat="43.32076" lon="5.52997">
        <ele>322.5</ele>
        <time>2012-11-18T15:47:39</time>
      </trkpt>
      <trkpt lat="43.32069" lon="5.53019">
        <ele>316.60000610352</ele>
        <time>2012-11-18T15:48:04</time>
      </trkpt>
      <trkpt lat="43.3205" lon="5.53045">
        <ele>316.39999389648</ele>
        <time>2012-11-18T15:48:29</time>
      </trkpt>
      <trkpt lat="43.32021" lon="5.53055">
        <ele>311.29998779297</ele>
        <time>2012-11-18T15:49:00</time>
      </trkpt>
      <trkpt lat="43.31876" lon="5.5308">
        <ele>294.5</ele>
        <time>2012-11-18T15:53:44</time>
      </trkpt>
      <trkpt lat="43.31867" lon="5.53113">
        <ele>285.10000610352</ele>
        <time>2012-11-18T15:54:07</time>
      </trkpt>
      <trkpt lat="43.31856" lon="5.53148">
        <ele>283.70001220703</ele>
        <time>2012-11-18T15:54:34</time>
      </trkpt>
      <trkpt lat="43.31835" lon="5.53156">
        <ele>279.70001220703</ele>
        <time>2012-11-18T15:54:51</time>
      </trkpt>
      <trkpt lat="43.31824" lon="5.53177">
        <ele>270.89999389648</ele>
        <time>2012-11-18T15:55:08</time>
      </trkpt>
      <trkpt lat="43.31814" lon="5.53204">
        <ele>269.70001220703</ele>
        <time>2012-11-18T15:55:25</time>
      </trkpt>
      <trkpt lat="43.31798" lon="5.53242">
        <ele>268.70001220703</ele>
        <time>2012-11-18T15:55:51</time>
      </trkpt>
      <trkpt lat="43.31796" lon="5.53253">
        <ele>271.5</ele>
        <time>2012-11-18T15:55:57</time>
      </trkpt>
      <trkpt lat="43.31787" lon="5.533">
        <ele>266.79998779297</ele>
        <time>2012-11-18T15:56:28</time>
      </trkpt>
      <trkpt lat="43.31793" lon="5.53325">
        <ele>260.60000610352</ele>
        <time>2012-11-18T15:56:48</time>
      </trkpt>
      <trkpt lat="43.31787" lon="5.5334">
        <ele>256.20001220703</ele>
        <time>2012-11-18T15:57:01</time>
      </trkpt>
      <trkpt lat="43.31784" lon="5.53395">
        <ele>259.39999389648</ele>
        <time>2012-11-18T15:57:31</time>
      </trkpt>
      <trkpt lat="43.31787" lon="5.53408">
        <ele>258.79998779297</ele>
        <time>2012-11-18T15:57:37</time>
      </trkpt>
      <trkpt lat="43.31791" lon="5.53456">
        <ele>254.29998779297</ele>
        <time>2012-11-18T15:58:12</time>
      </trkpt>
      <trkpt lat="43.31786" lon="5.53486">
        <ele>253.29998779297</ele>
        <time>2012-11-18T15:58:30</time>
      </trkpt>
      <trkpt lat="43.31781" lon="5.53516">
        <ele>256</ele>
        <time>2012-11-18T15:58:47</time>
      </trkpt>
      <trkpt lat="43.31781" lon="5.53535">
        <ele>256.70001220703</ele>
        <time>2012-11-18T15:58:59</time>
      </trkpt>
      <trkpt lat="43.31783" lon="5.53586">
        <ele>259.10000610352</ele>
        <time>2012-11-18T15:59:31</time>
      </trkpt>
      <trkpt lat="43.31785" lon="5.53609">
        <ele>258.79998779297</ele>
        <time>2012-11-18T15:59:41</time>
      </trkpt>
      <trkpt lat="43.31798" lon="5.53641">
        <ele>260.5</ele>
        <time>2012-11-18T16:00:06</time>
      </trkpt>
      <trkpt lat="43.31808" lon="5.5366">
        <ele>264.60000610352</ele>
        <time>2012-11-18T16:00:32</time>
      </trkpt>
      <trkpt lat="43.31812" lon="5.53689">
        <ele>271.60000610352</ele>
        <time>2012-11-18T16:00:53</time>
      </trkpt>
      <trkpt lat="43.31796" lon="5.53734">
        <ele>263.29998779297</ele>
        <time>2012-11-18T16:01:56</time>
      </trkpt>
      <trkpt lat="43.31788" lon="5.53723">
        <ele>264.70001220703</ele>
        <time>2012-11-18T16:02:04</time>
      </trkpt>
      <trkpt lat="43.31766" lon="5.5371">
        <ele>248.70001220703</ele>
        <time>2012-11-18T16:02:29</time>
      </trkpt>
      <trkpt lat="43.31747" lon="5.53699">
        <ele>252.39999389648</ele>
        <time>2012-11-18T16:02:45</time>
      </trkpt>
      <trkpt lat="43.31722" lon="5.53711">
        <ele>251.79998779297</ele>
        <time>2012-11-18T16:03:09</time>
      </trkpt>
      <trkpt lat="43.31714" lon="5.53746">
        <ele>248.79998779297</ele>
        <time>2012-11-18T16:03:33</time>
      </trkpt>
      <trkpt lat="43.31671" lon="5.5378">
        <ele>244</ele>
        <time>2012-11-18T16:05:54</time>
      </trkpt>
      <trkpt lat="43.31664" lon="5.5379">
        <ele>231.20001220703</ele>
        <time>2012-11-18T16:06:27</time>
      </trkpt>
      <trkpt lat="43.31658" lon="5.53816">
        <ele>216.10000610352</ele>
        <time>2012-11-18T16:06:40</time>
      </trkpt>
      <trkpt lat="43.31637" lon="5.53849">
        <ele>216.5</ele>
        <time>2012-11-18T16:07:03</time>
      </trkpt>
      <trkpt lat="43.31622" lon="5.53873">
        <ele>228.10000610352</ele>
        <time>2012-11-18T16:07:27</time>
      </trkpt>
      <trkpt lat="43.31617" lon="5.53895">
        <ele>226.60000610352</ele>
        <time>2012-11-18T16:07:42</time>
      </trkpt>
      <trkpt lat="43.31614" lon="5.53933">
        <ele>230.5</ele>
        <time>2012-11-18T16:07:59</time>
      </trkpt>
      <trkpt lat="43.31595" lon="5.53972">
        <ele>232.60000610352</ele>
        <time>2012-11-18T16:08:27</time>
      </trkpt>
      <trkpt lat="43.31595" lon="5.53975">
        <ele>233.39999389648</ele>
        <time>2012-11-18T16:08:30</time>
      </trkpt>
      <trkpt lat="43.31576" lon="5.54033">
        <ele>217.10000610352</ele>
        <time>2012-11-18T16:09:09</time>
      </trkpt>
      <trkpt lat="43.31571" lon="5.54036">
        <ele>216.79998779297</ele>
        <time>2012-11-18T16:09:13</time>
      </trkpt>
      <trkpt lat="43.31551" lon="5.5408">
        <ele>215</ele>
        <time>2012-11-18T16:09:37</time>
      </trkpt>
      <trkpt lat="43.31533" lon="5.54099">
        <ele>230.70001220703</ele>
        <time>2012-11-18T16:09:58</time>
      </trkpt>
      <trkpt lat="43.31505" lon="5.54135">
        <ele>212.20001220703</ele>
        <time>2012-11-18T16:10:25</time>
      </trkpt>
      <trkpt lat="43.31491" lon="5.54144">
        <ele>212.79998779297</ele>
        <time>2012-11-18T16:10:34</time>
      </trkpt>
      <trkpt lat="43.31475" lon="5.54164">
        <ele>218.70001220703</ele>
        <time>2012-11-18T16:10:51</time>
      </trkpt>
      <trkpt lat="43.31467" lon="5.54194">
        <ele>214.20001220703</ele>
        <time>2012-11-18T16:11:08</time>
      </trkpt>
      <trkpt lat="43.31461" lon="5.54142">
        <ele>227.60000610352</ele>
        <time>2012-11-18T16:12:52</time>
      </trkpt>
      <trkpt lat="43.3147" lon="5.54117">
        <ele>225.60000610352</ele>
        <time>2012-11-18T16:13:14</time>
      </trkpt>
      <trkpt lat="43.31481" lon="5.54071">
        <ele>239.89999389648</ele>
        <time>2012-11-18T16:13:48</time>
      </trkpt>
      <trkpt lat="43.31486" lon="5.54053">
        <ele>241.20001220703</ele>
        <time>2012-11-18T16:13:58</time>
      </trkpt>
      <trkpt lat="43.31498" lon="5.54028">
        <ele>244.5</ele>
        <time>2012-11-18T16:14:15</time>
      </trkpt>
      <trkpt lat="43.31517" lon="5.53998">
        <ele>245.60000610352</ele>
        <time>2012-11-18T16:15:10</time>
      </trkpt>
      <trkpt lat="43.31531" lon="5.53946">
        <ele>250.20001220703</ele>
        <time>2012-11-18T16:15:41</time>
      </trkpt>
      <trkpt lat="43.31534" lon="5.53937">
        <ele>251.5</ele>
        <time>2012-11-18T16:15:47</time>
      </trkpt>
      <trkpt lat="43.31551" lon="5.53879">
        <ele>251.70001220703</ele>
        <time>2012-11-18T16:16:55</time>
      </trkpt>
      <trkpt lat="43.31558" lon="5.53864">
        <ele>250.79998779297</ele>
        <time>2012-11-18T16:17:08</time>
      </trkpt>
      <trkpt lat="43.31562" lon="5.5383">
        <ele>259.60000610352</ele>
        <time>2012-11-18T16:17:44</time>
      </trkpt>
      <trkpt lat="43.31553" lon="5.53798">
        <ele>269.20001220703</ele>
        <time>2012-11-18T16:18:33</time>
      </trkpt>
      <trkpt lat="43.31562" lon="5.53716">
        <ele>269.39999389648</ele>
        <time>2012-11-18T16:21:05</time>
      </trkpt>
      <trkpt lat="43.31561" lon="5.53701">
        <ele>266.39999389648</ele>
        <time>2012-11-18T16:21:14</time>
      </trkpt>
      <trkpt lat="43.31562" lon="5.53676">
        <ele>266.20001220703</ele>
        <time>2012-11-18T16:21:27</time>
      </trkpt>
      <trkpt lat="43.31551" lon="5.53658">
        <ele>270.29998779297</ele>
        <time>2012-11-18T16:22:11</time>
      </trkpt>
      <trkpt lat="43.31526" lon="5.5368">
        <ele>273.70001220703</ele>
        <time>2012-11-18T16:23:08</time>
      </trkpt>
      <trkpt lat="43.31502" lon="5.53677">
        <ele>274.70001220703</ele>
        <time>2012-11-18T16:23:32</time>
      </trkpt>
      <trkpt lat="43.315" lon="5.53677">
        <ele>273.5</ele>
        <time>2012-11-18T16:23:40</time>
      </trkpt>
      <trkpt lat="43.31514" lon="5.53661">
        <ele>267.60000610352</ele>
        <time>2012-11-18T16:24:25</time>
      </trkpt>
      <trkpt lat="43.31523" lon="5.53631">
        <ele>269.60000610352</ele>
        <time>2012-11-18T16:24:46</time>
      </trkpt>
      <trkpt lat="43.31554" lon="5.53758">
        <ele>273.5</ele>
        <time>2012-11-18T16:30:08</time>
      </trkpt>
      <trkpt lat="43.31557" lon="5.53783">
        <ele>273.29998779297</ele>
        <time>2012-11-18T16:30:22</time>
      </trkpt>
      <trkpt lat="43.31552" lon="5.53835">
        <ele>262.10000610352</ele>
        <time>2012-11-18T16:31:10</time>
      </trkpt>
      <trkpt lat="43.3155" lon="5.53851">
        <ele>258.10000610352</ele>
        <time>2012-11-18T16:31:18</time>
      </trkpt>
      <trkpt lat="43.31542" lon="5.53896">
        <ele>253.20001220703</ele>
        <time>2012-11-18T16:31:44</time>
      </trkpt>
      <trkpt lat="43.31534" lon="5.53921">
        <ele>255.89999389648</ele>
        <time>2012-11-18T16:32:01</time>
      </trkpt>
      <trkpt lat="43.31526" lon="5.53971">
        <ele>245</ele>
        <time>2012-11-18T16:32:35</time>
      </trkpt>
      <trkpt lat="43.31513" lon="5.53985">
        <ele>246.89999389648</ele>
        <time>2012-11-18T16:32:44</time>
      </trkpt>
      <trkpt lat="43.31497" lon="5.54013">
        <ele>244.10000610352</ele>
        <time>2012-11-18T16:33:05</time>
      </trkpt>
      <trkpt lat="43.31482" lon="5.54039">
        <ele>240.60000610352</ele>
        <time>2012-11-18T16:33:23</time>
      </trkpt>
      <trkpt lat="43.31471" lon="5.54067">
        <ele>235.39999389648</ele>
        <time>2012-11-18T16:33:42</time>
      </trkpt>
      <trkpt lat="43.31468" lon="5.54096">
        <ele>225.29998779297</ele>
        <time>2012-11-18T16:34:00</time>
      </trkpt>
      <trkpt lat="43.31452" lon="5.54141">
        <ele>230.20001220703</ele>
        <time>2012-11-18T16:34:32</time>
      </trkpt>
      <trkpt lat="43.31444" lon="5.54174">
        <ele>220.5</ele>
        <time>2012-11-18T16:34:53</time>
      </trkpt>
      <trkpt lat="43.31435" lon="5.54198">
        <ele>221.89999389648</ele>
        <time>2012-11-18T16:35:10</time>
      </trkpt>
      <trkpt lat="43.31421" lon="5.54205">
        <ele>220.20001220703</ele>
        <time>2012-11-18T16:35:29</time>
      </trkpt>
      <trkpt lat="43.31381" lon="5.54198">
        <ele>224.79998779297</ele>
        <time>2012-11-18T16:35:59</time>
      </trkpt>
      <trkpt lat="43.31374" lon="5.54198">
        <ele>222.39999389648</ele>
        <time>2012-11-18T16:36:05</time>
      </trkpt>
      <trkpt lat="43.31353" lon="5.54204">
        <ele>204.89999389648</ele>
        <time>2012-11-18T16:36:29</time>
      </trkpt>
      <trkpt lat="43.31343" lon="5.54226">
        <ele>204.30000305176</ele>
        <time>2012-11-18T16:36:44</time>
      </trkpt>
      <trkpt lat="43.31338" lon="5.54279">
        <ele>207.20001220703</ele>
        <time>2012-11-18T16:37:14</time>
      </trkpt>
      <trkpt lat="43.31338" lon="5.54297">
        <ele>204.80000305176</ele>
        <time>2012-11-18T16:37:28</time>
      </trkpt>
      <trkpt lat="43.31314" lon="5.5435">
        <ele>201.80000305176</ele>
        <time>2012-11-18T16:37:54</time>
      </trkpt>
      <trkpt lat="43.31312" lon="5.54358">
        <ele>198.80000305176</ele>
        <time>2012-11-18T16:38:00</time>
      </trkpt>
      <trkpt lat="43.31292" lon="5.54389">
        <ele>202.19999694824</ele>
        <time>2012-11-18T16:38:27</time>
      </trkpt>
      <trkpt lat="43.31282" lon="5.54409">
        <ele>196.60000610352</ele>
        <time>2012-11-18T16:38:42</time>
      </trkpt>
      <trkpt lat="43.31264" lon="5.54438">
        <ele>192.39999389648</ele>
        <time>2012-11-18T16:39:08</time>
      </trkpt>
      <trkpt lat="43.31243" lon="5.54469">
        <ele>193.80000305176</ele>
        <time>2012-11-18T16:39:29</time>
      </trkpt>
      <trkpt lat="43.31226" lon="5.5448">
        <ele>191.89999389648</ele>
        <time>2012-11-18T16:39:48</time>
      </trkpt>
      <trkpt lat="43.31215" lon="5.54517">
        <ele>200.80000305176</ele>
        <time>2012-11-18T16:40:10</time>
      </trkpt>
      <trkpt lat="43.31218" lon="5.54553">
        <ele>205.5</ele>
        <time>2012-11-18T16:40:30</time>
      </trkpt>
      <trkpt lat="43.31209" lon="5.54578">
        <ele>204.89999389648</ele>
        <time>2012-11-18T16:40:45</time>
      </trkpt>
      <trkpt lat="43.3121" lon="5.54625">
        <ele>200</ele>
        <time>2012-11-18T16:41:17</time>
      </trkpt>
      <trkpt lat="43.31219" lon="5.54667">
        <ele>191.69999694824</ele>
        <time>2012-11-18T16:41:40</time>
      </trkpt>
      <trkpt lat="43.31214" lon="5.54685">
        <ele>191.80000305176</ele>
        <time>2012-11-18T16:41:53</time>
      </trkpt>
      <trkpt lat="43.31187" lon="5.54707">
        <ele>193.80000305176</ele>
        <time>2012-11-18T16:42:20</time>
      </trkpt>
      <trkpt lat="43.31168" lon="5.54729">
        <ele>198.60000610352</ele>
        <time>2012-11-18T16:42:38</time>
      </trkpt>
      <trkpt lat="43.31156" lon="5.54737">
        <ele>195.10000610352</ele>
        <time>2012-11-18T16:42:49</time>
      </trkpt>
      <trkpt lat="43.31125" lon="5.5476">
        <ele>198.60000610352</ele>
        <time>2012-11-18T16:43:13</time>
      </trkpt>
      <trkpt lat="43.31113" lon="5.54753">
        <ele>189.69999694824</ele>
        <time>2012-11-18T16:43:23</time>
      </trkpt>
      <trkpt lat="43.31075" lon="5.54767">
        <ele>194.5</ele>
        <time>2012-11-18T16:44:01</time>
      </trkpt>
      <trkpt lat="43.30969" lon="5.54696">
        <ele>202.89999389648</ele>
        <time>2012-11-18T16:51:05</time>
      </trkpt>
      <trkpt lat="43.30959" lon="5.54689">
        <ele>206.80000305176</ele>
        <time>2012-11-18T16:51:15</time>
      </trkpt>
      <trkpt lat="43.30948" lon="5.54671">
        <ele>201.10000610352</ele>
        <time>2012-11-18T16:51:32</time>
      </trkpt>
      <trkpt lat="43.30936" lon="5.54646">
        <ele>199.30000305176</ele>
        <time>2012-11-18T16:52:01</time>
      </trkpt>
      <trkpt lat="43.30921" lon="5.54624">
        <ele>199.80000305176</ele>
        <time>2012-11-18T16:52:20</time>
      </trkpt>
      <trkpt lat="43.30894" lon="5.54618">
        <ele>220.29998779297</ele>
        <time>2012-11-18T16:52:48</time>
      </trkpt>
      <trkpt lat="43.30891" lon="5.54581">
        <ele>205</ele>
        <time>2012-11-18T16:53:23</time>
      </trkpt>
      <trkpt lat="43.30897" lon="5.54551">
        <ele>206.89999389648</ele>
        <time>2012-11-18T16:53:38</time>
      </trkpt>
      <trkpt lat="43.30897" lon="5.54516">
        <ele>203.60000610352</ele>
        <time>2012-11-18T16:54:05</time>
      </trkpt>
    </trkseg>
  </trk>
</gpx>